Accueil
METAR-TAF:

METAR-TAF

Aéroports :

Pine Ridge, Dakota du Sud, États-Unis

latitude: 43-01-32N, longitude: 102-31-23W, altitude: 1015 m

Observation

Le bulletin a été fait il y a 59 minutes, à 14:52 UTC
Vent calme
Température -1°C
Humidité 86%
Pression 1025 hPa
Visibilité: 16.1 km
Ciel clair

METAR: KIEN 141452Z AUTO 00000KT 10SM CLR M01/M03 A3026 RMK AO2 SLP276 I3000 T10111033 53009

Heure: 08:51 (15:51 UTC)


TAF: absent

Observations et prévisions météorologiques de plus de 4000 aéroports (messages METAR et TAF).

Les stations disponibles sont représentées par des disques jaunes et rouges sur la carte.

Passer la souris dessus pour voir le nom de la station.

Cliquer dessus pour voir les observations et prévisions météorologiques.

Pour changer de carte: cliquez sur les boutons verts avec une croix noire pour zoomer, sur le bouton vert avec un tiret pour effectuer un zoom arrière, ou sur les flèches vertes pour les cartes adjacentes.


METAR-TAF: